Terminal Aerodrome Forecast
Issued by NWS Melbourne, FL

Home | Current Version | Previous Version | Text Only | Print | Product List | Glossary On
Versions: 1 2 3 4 5 6 7 8 9 10 11 12 13 14 15 16 17 18 19 20 21 22
000
FTUS42 KMLB 051139
TAFMCO
TAF
KMCO 051139Z 0512/0612 17005KT 3SM BR FEW005 SCT150
      TEMPO 0512/0514 SCT003 BKN008
     FM051500 17010KT P6SM BKN025
     FM051800 18010KT P6SM BKN040
     FM060000 15006KT P6SM VCSH BKN040
     FM060600 17008KT P6SM SCT003 BKN010=

USA.gov is the U.S. government's official web portal to all federal, state and local government web resources and services.